Time;durP1;ratioP1;P1;durP2;ratioP2;P2;SDS_P1;SDS_P2;PMS_P1;PMS_P2;Temp;Humidity;BMP_temperature;BMP_pressure;BME280_temperature;BME280_humidity;BME280_pressure;Samples;Min_cycle;Max_cycle;Signal;HPM_P1;HPM_P2
2022/11/03 00:00:45;;;;;;;;;;;;;;;8.70;91.13;99765.97;1786455;80;20123;-55
2022/11/03 00:03:12;;;;;;;;;;;;;;;8.68;91.35;99766.48;1787572;80;20189;-52
2022/11/03 00:08:23;;;;;;;;;;;;;;;8.61;92.41;99771.58;1785383;80;20449;-53
2022/11/03 00:10:50;;;;;;;;;;;;;;;8.61;92.41;99772.89;1788701;80;20455;-53
2022/11/03 00:13:16;;;;;;;;;;;;;;;8.59;92.74;99776.03;1795499;80;20482;-55
2022/11/03 00:15:49;;;;;;;;;;;;;;;8.58;92.42;99773.00;1786259;80;20448;-54
2022/11/03 00:18:16;;;;;;;;;;;;;;;8.56;92.29;99770.90;1785724;80;20135;-51
2022/11/03 00:20:42;;;;;;;;;;;;;;;8.56;92.73;99768.27;1785792;80;20134;-54
2022/11/03 00:23:09;;;;;;;;;;;;;;;8.54;92.86;99767.02;1785120;80;20146;-55
2022/11/03 00:25:35;;;;;;;;;;;;;;;8.54;92.61;99768.80;1784203;80;20133;-56
2022/11/03 00:28:02;;;;;;;;;;;;;;;8.54;92.60;99764.86;1788173;80;20153;-53
2022/11/03 00:30:29;;;;;;;;;;;;;;;8.51;92.79;99765.81;1784292;80;20563;-51
2022/11/03 00:32:57;;;;;;;;;;;;;;;8.51;92.39;99767.59;1783547;80;20435;-57
2022/11/03 00:35:24;;;;;;;;;;;;;;;8.47;92.95;99774.72;1789088;80;20161;-54
2022/11/03 00:37:50;;;;;;;;;;;;;;;8.44;93.18;99776.14;1785940;80;20118;-54
2022/11/03 00:40:17;;;;;;;;;;;;;;;8.43;92.54;99773.14;1789534;80;20155;-54
2022/11/03 00:42:43;;;;;;;;;;;;;;;8.44;92.32;99775.71;1785645;80;20190;-56
2022/11/03 00:45:10;;;;;;;;;;;;;;;8.41;92.79;99770.55;1784413;80;20155;-53
2022/11/03 00:48:28;;;;;;;;;;;;;;;8.42;92.68;99774.92;1787410;80;20581;-53
2022/11/03 00:50:05;;;;;;;;;;;;;;;8.40;92.79;99772.79;1782071;80;20126;-52
2022/11/03 00:52:32;;;;;;;;;;;;;;;8.39;93.31;99774.16;1782714;80;20126;-51
2022/11/03 00:54:58;;;;;;;;;;;;;;;8.34;93.11;99775.62;1783436;80;20134;-53
2022/11/03 00:57:25;;;;;;;;;;;;;;;8.34;92.97;99766.45;1787025;80;20119;-53
2022/11/03 00:59:52;;;;;;;;;;;;;;;8.33;93.33;99776.55;1785595;80;20127;-55
2022/11/03 01:02:18;;;;;;;;;;;;;;;8.30;92.96;99771.89;1785996;80;20241;-51
2022/11/03 01:07:30;;;;;;;;;;;;;;;8.21;93.42;99777.02;1788184;80;20471;-54
2022/11/03 01:09:57;;;;;;;;;;;;;;;8.21;93.21;99771.31;1784413;80;20526;-53
2022/11/03 01:12:23;;;;;;;;;;;;;;;8.17;93.64;99766.27;1786307;80;20456;-54
2022/11/03 01:14:51;;;;;;;;;;;;;;;8.24;93.21;99770.33;1784548;80;20534;-54
2022/11/03 01:17:23;;;;;;;;;;;;;;;8.20;93.24;99770.05;1788396;80;20134;-57
2022/11/03 01:19:50;;;;;;;;;;;;;;;8.20;93.38;99769.59;1786171;78;20133;-54
2022/11/03 01:22:17;;;;;;;;;;;;;;;8.19;93.08;99773.14;1783250;80;20147;-56
2022/11/03 01:24:43;;;;;;;;;;;;;;;8.17;93.16;99768.88;1785941;79;20118;-52
2022/11/03 01:27:13;;;;;;;;;;;;;;;8.19;92.97;99769.67;1786115;80;20123;-52
2022/11/03 01:29:40;;;;;;;;;;;;;;;8.21;92.68;99767.84;1787064;80;20456;-55
2022/11/03 01:32:07;;;;;;;;;;;;;;;8.17;92.87;99763.64;1787098;79;20135;-51
2022/11/03 02:00:22;;;;;;;;;;;;;;;7.97;92.75;99768.31;1787239;80;20460;-55
2022/11/03 02:02:49;;;;;;;;;;;;;;;7.97;92.55;99769.16;1788179;80;20428;-54
2022/11/03 02:05:17;;;;;;;;;;;;;;;7.98;92.75;99776.55;1780261;80;20468;-54
2022/11/03 02:07:56;;;;;;;;;;;;;;;7.97;91.25;99773.09;1785058;80;20134;-54
2022/11/03 02:10:23;;;;;;;;;;;;;;;7.88;91.97;99773.43;1780141;80;20440;-54
2022/11/03 02:12:50;;;;;;;;;;;;;;;7.87;91.61;99775.64;1783934;80;20123;-54
2022/11/03 02:15:18;;;;;;;;;;;;;;;7.83;92.43;99771.42;1784545;80;20171;-54
2022/11/03 02:17:46;;;;;;;;;;;;;;;7.82;92.52;99769.27;1786381;80;20166;-54
2022/11/03 02:20:16;;;;;;;;;;;;;;;7.79;92.82;99758.05;1786807;80;20581;-52
2022/11/03 02:23:03;;;;;;;;;;;;;;;7.79;92.71;99766.75;1784234;80;20405;-53
2022/11/03 02:25:44;;;;;;;;;;;;;;;7.77;92.76;99760.72;1783902;80;20127;-52
2022/11/03 02:28:14;;;;;;;;;;;;;;;7.75;92.83;99760.36;1780276;80;20155;-53
2022/11/03 02:30:47;;;;;;;;;;;;;;;7.71;93.31;99760.92;1781516;80;20131;-52
2022/11/03 02:33:29;;;;;;;;;;;;;;;7.62;92.99;99763.88;1787702;80;20119;-48
2022/11/03 02:36:19;;;;;;;;;;;;;;;7.58;93.24;99761.82;1775453;80;20132;-52
2022/11/03 02:38:54;;;;;;;;;;;;;;;7.58;93.34;99760.52;1785496;80;20139;-54
2022/11/03 02:41:22;;;;;;;;;;;;;;;7.54;93.64;99756.30;1782464;77;20108;-54
2022/11/03 02:43:48;;;;;;;;;;;;;;;7.56;93.71;99758.41;1760125;81;20112;-55
2022/11/03 02:46:16;;;;;;;;;;;;;;;7.51;94.01;99755.09;1752063;81;20112;-51
2022/11/03 02:48:43;;;;;;;;;;;;;;;7.49;94.20;99758.22;1744769;80;20124;-55
2022/11/03 02:51:10;;;;;;;;;;;;;;;7.50;94.29;99751.63;1767330;80;20112;-53
2022/11/03 02:53:39;;;;;;;;;;;;;;;7.47;94.34;99760.04;1761935;80;20096;-52
2022/11/03 02:56:12;;;;;;;;;;;;;;;7.45;94.57;99765.33;1761121;80;20140;-53
2022/11/03 02:58:49;;;;;;;;;;;;;;;7.44;94.61;99759.71;1759644;80;20541;-54
2022/11/03 03:01:33;;;;;;;;;;;;;;;7.47;94.63;99756.12;1739423;80;20112;-50
2022/11/03 03:04:08;;;;;;;;;;;;;;;7.45;94.70;99755.32;1762524;80;20112;-55
2022/11/03 03:06:41;;;;;;;;;;;;;;;7.46;94.26;99762.28;1757203;80;20112;-52
2022/11/03 03:09:11;;;;;;;;;;;;;;;7.45;94.23;99761.86;1759211;80;20120;-53
2022/11/03 03:11:40;;;;;;;;;;;;;;;7.45;94.35;99757.47;1764284;80;20104;-50
2022/11/03 03:14:19;;;;;;;;;;;;;;;7.42;94.38;99761.96;1759544;80;20104;-57
2022/11/03 03:17:07;;;;;;;;;;;;;;;7.42;94.17;99766.77;1772130;80;20136;-58
2022/11/03 03:19:56;;;;;;;;;;;;;;;7.40;94.46;99771.63;1765133;80;20519;-57
2022/11/03 03:22:40;;;;;;;;;;;;;;;7.39;94.40;99766.86;1763515;80;20104;-53
2022/11/03 03:25:15;;;;;;;;;;;;;;;7.37;94.09;99774.34;1770937;80;20112;-56
2022/11/03 03:27:47;;;;;;;;;;;;;;;7.34;94.07;99764.00;1762202;80;20199;-55
2022/11/03 03:30:15;;;;;;;;;;;;;;;7.34;94.08;99764.00;1769202;80;20152;-49
2022/11/03 03:32:47;;;;;;;;;;;;;;;7.36;94.09;99766.11;1765109;80;20133;-54
2022/11/03 03:35:18;;;;;;;;;;;;;;;7.30;93.98;99771.95;1769410;80;20112;-55
2022/11/03 03:37:47;;;;;;;;;;;;;;;7.28;93.93;99765.92;1766311;80;20124;-59
2022/11/03 03:40:17;;;;;;;;;;;;;;;7.26;94.22;99765.13;1763759;80;20104;-55
2022/11/03 03:42:46;;;;;;;;;;;;;;;7.27;93.95;99768.12;1771692;80;20184;-56
2022/11/03 03:45:13;;;;;;;;;;;;;;;7.20;94.17;99769.23;1765183;80;20111;-58
2022/11/03 03:47:40;;;;;;;;;;;;;;;7.20;94.00;99763.16;1766034;80;20401;-53
2022/11/03 03:50:07;;;;;;;;;;;;;;;7.18;94.35;99772.36;1765397;80;20413;-54
2022/11/03 03:52:34;;;;;;;;;;;;;;;7.16;94.16;99768.09;1764890;80;20401;-53
2022/11/03 03:55:01;;;;;;;;;;;;;;;7.16;94.02;99768.09;1767344;80;20104;-53
2022/11/03 03:57:29;;;;;;;;;;;;;;;7.15;93.81;99767.68;1764343;80;20107;-54
2022/11/03 03:59:56;;;;;;;;;;;;;;;7.13;94.04;99768.19;1765115;80;20131;-52
2022/11/03 04:02:23;;;;;;;;;;;;;;;7.10;94.28;99766.55;1764554;80;20228;-55
2022/11/03 04:04:49;;;;;;;;;;;;;;;7.08;94.02;99769.67;1768869;80;20106;-55
2022/11/03 04:10:01;;;;;;;;;;;;;;;7.07;93.48;99771.87;1767477;80;20211;-55
2022/11/03 04:23:27;;;;;;;;;;;;;;;6.96;93.63;99766.14;1765653;80;20519;-56
2022/11/03 04:25:55;;;;;;;;;;;;;;;6.93;93.52;99763.19;1757181;80;20433;-52
2022/11/03 04:28:24;;;;;;;;;;;;;;;6.86;93.71;99765.14;1768070;80;20132;-53
2022/11/03 04:30:51;;;;;;;;;;;;;;;6.88;93.62;99766.41;1766704;80;20104;-53
2022/11/03 04:33:19;;;;;;;;;;;;;;;6.87;93.62;99773.36;1764292;80;20112;-54
2022/11/03 04:35:47;;;;;;;;;;;;;;;6.85;93.66;99768.64;1767771;80;20135;-55
2022/11/03 04:38:17;;;;;;;;;;;;;;;6.82;93.41;99758.31;1763160;80;20104;-54
2022/11/03 04:40:45;;;;;;;;;;;;;;;6.79;93.49;99761.47;1766169;80;20397;-56
2022/11/03 04:43:14;;;;;;;;;;;;;;;6.77;93.79;99767.17;1767914;80;20116;-56
2022/11/03 04:45:43;;;;;;;;;;;;;;;6.78;93.62;99767.13;1759826;79;20117;-51
2022/11/03 04:48:16;;;;;;;;;;;;;;;6.75;93.48;99768.98;1764150;80;20100;-54
2022/11/03 04:50:42;;;;;;;;;;;;;;;6.71;93.49;99761.70;1741032;80;20107;-54
2022/11/03 04:53:12;;;;;;;;;;;;;;;6.63;93.85;99766.33;1769178;80;20104;-50
2022/11/03 04:55:40;;;;;;;;;;;;;;;6.66;93.83;99766.23;1757682;80;20124;-58
2022/11/03 04:58:21;;;;;;;;;;;;;;;6.64;94.21;99770.20;1756820;80;20096;-55
2022/11/03 05:00:53;;;;;;;;;;;;;;;6.68;93.94;99763.13;1760934;80;20128;-53
2022/11/03 05:03:23;;;;;;;;;;;;;;;6.67;94.12;99760.09;1763041;80;20111;-54
2022/11/03 05:05:50;;;;;;;;;;;;;;;6.64;93.96;99760.18;1763681;80;20412;-55
2022/11/03 05:08:18;;;;;;;;;;;;;;;6.63;94.12;99761.09;1763116;80;20172;-51
2022/11/03 05:10:45;;;;;;;;;;;;;;;6.59;94.20;99759.49;1773482;80;20190;-53
2022/11/03 05:13:18;;;;;;;;;;;;;;;6.58;94.35;99758.61;1762703;80;20127;-53
2022/11/03 05:15:47;;;;;;;;;;;;;;;6.54;94.28;99759.63;1763727;80;20214;-54
2022/11/03 05:18:20;;;;;;;;;;;;;;;6.52;94.56;99753.13;1754008;80;20135;-51
2022/11/03 05:21:05;;;;;;;;;;;;;;;6.54;94.44;99751.78;1757569;80;20131;-53
2022/11/03 05:23:47;;;;;;;;;;;;;;;6.51;94.42;99757.97;1765966;80;20135;-53
2022/11/03 05:26:17;;;;;;;;;;;;;;;6.51;94.44;99759.70;1762157;80;20159;-54
2022/11/03 05:28:51;;;;;;;;;;;;;;;6.47;94.50;99756.34;1768061;81;20105;-53
2022/11/03 05:31:26;;;;;;;;;;;;;;;6.50;94.53;99755.41;1766842;80;20112;-54
2022/11/03 05:33:56;;;;;;;;;;;;;;;6.51;94.32;99760.59;1765895;80;20112;-53
2022/11/03 05:36:24;;;;;;;;;;;;;;;6.47;94.54;99756.34;1762258;80;20101;-53
2022/11/03 05:38:53;;;;;;;;;;;;;;;6.44;94.65;99762.11;1769165;80;20403;-48
2022/11/03 05:41:22;;;;;;;;;;;;;;;6.42;94.57;99765.22;1771080;81;20526;-48
2022/11/03 05:43:55;;;;;;;;;;;;;;;6.38;94.83;99768.38;1768199;80;20104;-52
2022/11/03 05:46:23;;;;;;;;;;;;;;;6.37;94.98;99762.77;1768221;80;20135;-49
2022/11/03 05:48:50;;;;;;;;;;;;;;;6.39;95.10;99766.64;1763137;80;20183;-60
2022/11/03 05:51:28;;;;;;;;;;;;;;;6.38;94.96;99769.68;1767818;80;20413;-52
2022/11/03 05:53:57;;;;;;;;;;;;;;;6.39;94.87;99776.62;1769553;80;20108;-58
2022/11/03 05:56:24;;;;;;;;;;;;;;;6.39;95.04;99769.25;1758487;80;20113;-59
2022/11/03 05:58:54;;;;;;;;;;;;;;;6.40;95.43;99769.64;1766272;80;20107;-54
2022/11/03 06:01:27;;;;;;;;;;;;;;;6.42;94.76;99772.63;1772822;80;20111;-54
2022/11/03 06:03:54;;;;;;;;;;;;;;;6.41;94.59;99768.75;1757991;80;20113;-56
2022/11/03 06:06:24;;;;;;;;;;;;;;;6.40;94.96;99771.80;1762740;80;20104;-57
2022/11/03 06:08:51;;;;;;;;;;;;;;;6.39;95.08;99764.87;1758342;80;20112;-55
2022/11/03 06:11:33;;;;;;;;;;;;;;;6.42;94.81;99768.71;1753123;80;20132;-55
2022/11/03 06:14:00;;;;;;;;;;;;;;;6.41;94.64;99772.21;1755650;80;20457;-57
2022/11/03 06:16:39;;;;;;;;;;;;;;;6.44;95.10;99775.17;1754669;80;20132;-54
2022/11/03 06:19:27;;;;;;;;;;;;;;;6.48;95.23;99767.66;1753831;80;20410;-53
2022/11/03 06:22:00;;;;;;;;;;;;;;;6.49;95.39;99768.05;1757178;80;20104;-57
2022/11/03 06:24:29;;;;;;;;;;;;;;;6.54;95.35;99767.46;1762995;80;20104;-54
2022/11/03 06:26:57;;;;;;;;;;;;;;;6.57;95.29;99773.03;1775164;80;20124;-54
2022/11/03 06:29:24;;;;;;;;;;;;;;;6.58;94.74;99770.83;1764330;80;20116;-53
2022/11/03 06:31:53;;;;;;;;;;;;;;;6.60;94.78;99775.56;1775412;80;20108;-56
2022/11/03 06:34:29;;;;;;;;;;;;;;;6.59;94.65;99777.33;1768123;80;20116;-56
2022/11/03 06:36:58;;;;;;;;;;;;;;;6.59;95.05;99776.02;1769171;80;20125;-52
2022/11/03 06:39:24;;;;;;;;;;;;;;;6.65;95.05;99777.58;1770372;80;20420;-54
2022/11/03 06:41:52;;;;;;;;;;;;;;;6.67;95.10;99776.61;1751869;80;20112;-52
2022/11/03 06:44:22;;;;;;;;;;;;;;;6.67;95.20;99779.23;1756913;80;20116;-53
2022/11/03 06:46:56;;;;;;;;;;;;;;;6.72;94.98;99776.48;1749892;80;20127;-55
2022/11/03 06:49:34;;;;;;;;;;;;;;;6.77;94.75;99781.13;1734554;80;20140;-49
2022/11/03 06:52:07;;;;;;;;;;;;;;;6.81;95.12;99779.27;1756795;79;20136;-55
2022/11/03 06:54:34;;;;;;;;;;;;;;;6.84;94.88;99785.68;1758226;80;20129;-53
2022/11/03 06:57:01;;;;;;;;;;;;;;;6.84;94.67;99786.98;1757915;80;20176;-57
2022/11/03 06:59:28;;;;;;;;;;;;;;;6.87;94.60;99788.20;1763803;80;20513;-52
2022/11/03 07:01:54;;;;;;;;;;;;;;;6.87;94.41;99786.44;1764426;80;20494;-58
2022/11/03 07:04:23;;;;;;;;;;;;;;;6.87;94.39;99785.13;1757947;79;20443;-55
2022/11/03 07:06:50;;;;;;;;;;;;;;;6.91;94.51;99780.66;1756728;80;20131;-58
2022/11/03 07:09:26;;;;;;;;;;;;;;;6.96;94.15;99784.45;1798474;79;20133;-50
2022/11/03 07:11:59;;;;;;;;;;;;;;;7.01;94.04;99790.39;1801823;78;20175;-52
2022/11/03 07:14:32;;;;;;;;;;;;;;;7.04;94.08;99783.73;1767954;79;20256;-56
2022/11/03 07:17:08;;;;;;;;;;;;;;;7.07;93.83;99782.33;1787696;79;20144;-53
2022/11/03 07:19:40;;;;;;;;;;;;;;;7.09;93.54;99781.82;1772383;79;20108;-56
2022/11/03 07:22:19;;;;;;;;;;;;;;;7.15;93.81;99784.69;1727862;81;20103;-51
2022/11/03 07:24:46;;;;;;;;;;;;;;;7.18;93.69;99786.74;1722592;81;20449;-50
2022/11/03 07:27:24;;;;;;;;;;;;;;;7.20;93.44;99787.54;1724448;81;20257;-56
2022/11/03 07:29:53;;;;;;;;;;;;;;;7.24;93.45;99785.25;1736955;81;20135;-55
2022/11/03 07:32:28;;;;;;;;;;;;;;;7.28;93.37;99785.53;1731182;81;20525;-54
2022/11/03 07:35:15;;;;;;;;;;;;;;;7.28;93.11;99786.84;1725810;81;20162;-50
2022/11/03 07:37:46;;;;;;;;;;;;;;;7.33;92.82;99783.21;1725083;81;20134;-54
2022/11/03 07:40:18;;;;;;;;;;;;;;;7.38;92.55;99782.61;1740704;81;20134;-52
2022/11/03 07:42:45;;;;;;;;;;;;;;;7.42;92.63;99782.89;1736381;81;20139;-54
2022/11/03 07:45:37;;;;;;;;;;;;;;;7.43;92.21;99776.30;1724638;82;20462;-49
2022/11/03 07:48:22;;;;;;;;;;;;;;;7.46;92.57;99777.52;1732299;81;20198;-51
2022/11/03 07:50:54;;;;;;;;;;;;;;;7.55;92.43;99772.85;1741162;81;20459;-54
2022/11/03 07:53:36;;;;;;;;;;;;;;;7.57;92.18;99775.83;1755331;81;20102;-54
2022/11/03 07:56:24;;;;;;;;;;;;;;;7.63;91.69;99773.45;1731819;81;20431;-54
2022/11/03 07:58:54;;;;;;;;;;;;;;;7.67;91.88;99775.05;1736807;81;20115;-52
2022/11/03 08:01:27;;;;;;;;;;;;;;;7.71;91.15;99777.09;1740969;81;20099;-52
2022/11/03 08:04:05;;;;;;;;;;;;;;;7.72;90.71;99777.05;1734995;81;20428;-50
2022/11/03 08:06:32;;;;;;;;;;;;;;;7.80;91.22;99776.30;1735269;81;20114;-50
2022/11/03 08:08:58;;;;;;;;;;;;;;;7.90;91.29;99774.22;1738755;81;20138;-53
2022/11/03 08:11:25;;;;;;;;;;;;;;;7.86;90.05;99770.02;1721180;82;20424;-57
2022/11/03 08:13:51;;;;;;;;;;;;;;;7.92;89.88;99770.24;1723155;81;20510;-53
2022/11/03 08:16:18;;;;;;;;;;;;;;;7.95;89.68;99767.05;1701722;82;20443;-55
2022/11/03 08:18:45;;;;;;;;;;;;;;;8.05;90.53;99772.33;1726085;81;20415;-50
2022/11/03 08:21:12;;;;;;;;;;;;;;;8.17;90.08;99765.80;1730428;82;20139;-54
2022/11/03 08:23:39;;;;;;;;;;;;;;;8.29;88.65;99763.15;1743997;80;20114;-54
2022/11/03 08:26:05;;;;;;;;;;;;;;;8.54;88.25;99764.40;1733064;82;20117;-53
2022/11/03 08:28:34;;;;;;;;;;;;;;;8.89;87.13;99751.64;1737341;82;20122;-53
2022/11/03 08:31:03;;;;;;;;;;;;;;;9.23;86.80;99753.70;1736108;82;20162;-52
2022/11/03 08:33:31;;;;;;;;;;;;;;;9.66;84.22;99754.08;1732301;82;20142;-53
2022/11/03 08:35:59;;;;;;;;;;;;;;;10.15;80.96;99749.23;1733499;82;20411;-50
2022/11/03 08:38:25;;;;;;;;;;;;;;;10.67;79.69;99751.23;1732708;82;20134;-50
2022/11/03 08:40:53;;;;;;;;;;;;;;;11.05;77.39;99745.39;1736703;81;20113;-51
2022/11/03 08:43:20;;;;;;;;;;;;;;;11.30;76.05;99742.85;1737103;82;20120;-51
2022/11/03 08:45:46;;;;;;;;;;;;;;;11.74;74.50;99741.00;1729753;82;20139;-44
2022/11/03 08:48:13;;;;;;;;;;;;;;;12.19;72.98;99742.13;1738909;81;20114;-49
2022/11/03 08:50:39;;;;;;;;;;;;;;;12.48;70.26;99743.14;1734343;81;20117;-49
2022/11/03 08:53:06;;;;;;;;;;;;;;;12.71;69.30;99733.55;1741853;81;20103;-50
2022/11/03 08:55:33;;;;;;;;;;;;;;;13.01;67.90;99730.45;1738686;81;20505;-49
2022/11/03 08:57:59;;;;;;;;;;;;;;;13.09;66.68;99731.33;1735492;81;20114;-50
2022/11/03 09:00:26;;;;;;;;;;;;;;;12.86;66.76;99733.52;1738905;81;20109;-52
2022/11/03 09:02:52;;;;;;;;;;;;;;;12.76;66.76;99736.30;1746528;82;20127;-47
2022/11/03 09:05:19;;;;;;;;;;;;;;;12.58;68.25;99736.88;1745524;82;20491;-51
2022/11/03 09:07:45;;;;;;;;;;;;;;;12.37;68.49;99732.80;1746065;81;20095;-52
2022/11/03 09:10:12;;;;;;;;;;;;;;;12.29;69.80;99730.59;1735202;81;20139;-51
2022/11/03 09:12:39;;;;;;;;;;;;;;;12.12;70.61;99730.21;1746033;81;20102;-49
2022/11/03 09:15:06;;;;;;;;;;;;;;;11.97;70.16;99734.54;1739756;81;20131;-51
2022/11/03 09:17:32;;;;;;;;;;;;;;;11.86;72.06;99728.48;1736694;81;20410;-50
2022/11/03 09:19:59;;;;;;;;;;;;;;;11.71;71.14;99729.30;1746761;82;20139;-48
2022/11/03 09:22:26;;;;;;;;;;;;;;;11.65;72.78;99726.99;1746530;81;20107;-49
2022/11/03 09:24:52;;;;;;;;;;;;;;;11.55;72.54;99716.55;1744356;81;20155;-50
2022/11/03 09:27:19;;;;;;;;;;;;;;;11.48;71.84;99722.62;1745497;81;20131;-54
2022/11/03 09:29:45;;;;;;;;;;;;;;;11.46;71.85;99718.75;1739695;81;20185;-53
2022/11/03 09:32:12;;;;;;;;;;;;;;;11.51;72.80;99722.44;1728259;82;20154;-50
2022/11/03 09:34:38;;;;;;;;;;;;;;;11.45;73.62;99712.23;1755344;80;20111;-52
2022/11/03 09:37:05;;;;;;;;;;;;;;;11.41;73.25;99712.86;1755459;80;20105;-52
2022/11/03 09:39:32;;;;;;;;;;;;;;;11.42;72.80;99704.48;1757185;80;20439;-52
2022/11/03 09:41:59;;;;;;;;;;;;;;;11.39;72.74;99697.61;1732686;82;20107;-56
2022/11/03 09:44:26;;;;;;;;;;;;;;;11.41;73.59;99695.74;1726198;82;20139;-54
2022/11/03 09:46:52;;;;;;;;;;;;;;;11.42;73.80;99692.63;1728153;82;20139;-55
2022/11/03 09:49:20;;;;;;;;;;;;;;;11.38;72.60;99685.36;1748186;80;20117;-50
2022/11/03 09:51:46;;;;;;;;;;;;;;;11.41;73.70;99685.69;1702581;82;20397;-54
2022/11/03 09:54:15;;;;;;;;;;;;;;;11.45;73.43;99685.91;1726622;82;20541;-53
2022/11/03 09:56:42;;;;;;;;;;;;;;;11.48;71.91;99687.91;1755587;81;20120;-52
2022/11/03 09:59:20;;;;;;;;;;;;;;;11.52;72.59;99680.22;1753362;81;20432;-49
2022/11/03 10:01:48;;;;;;;;;;;;;;;11.56;73.12;99674.80;1722017;82;20369;-55
2022/11/03 10:04:17;;;;;;;;;;;;;;;11.60;72.42;99675.02;1735805;81;20416;-50
2022/11/03 10:06:44;;;;;;;;;;;;;;;11.63;72.74;99670.91;1724720;81;20115;-51
2022/11/03 10:09:16;;;;;;;;;;;;;;;11.63;69.69;99663.00;1754936;81;20168;-49
2022/11/03 10:11:44;;;;;;;;;;;;;;;11.68;72.26;99664.94;1736744;82;20127;-52
2022/11/03 10:14:13;;;;;;;;;;;;;;;11.67;71.83;99656.63;1751684;80;20409;-50
2022/11/03 10:16:41;;;;;;;;;;;;;;;11.74;71.37;99659.31;1732042;82;20147;-53
2022/11/03 10:19:11;;;;;;;;;;;;;;;11.77;71.15;99656.97;1725262;82;20400;-51
2022/11/03 10:21:38;;;;;;;;;;;;;;;11.76;67.75;99656.61;1726925;82;20426;-53
2022/11/03 10:24:05;;;;;;;;;;;;;;;11.78;68.80;99655.58;1733039;82;20107;-51
2022/11/03 10:26:49;;;;;;;;;;;;;;;11.79;67.11;99654.66;1755221;81;20105;-52
2022/11/03 10:29:21;;;;;;;;;;;;;;;11.84;68.50;99651.30;1738705;82;20158;-51
2022/11/03 10:31:50;;;;;;;;;;;;;;;11.92;70.91;99646.95;1752442;80;20099;-48
2022/11/03 10:34:26;;;;;;;;;;;;;;;11.92;69.05;99646.95;1747366;79;20444;-52
2022/11/03 10:37:11;;;;;;;;;;;;;;;12.00;70.32;99649.16;1736390;81;20123;-56
2022/11/03 10:39:38;;;;;;;;;;;;;;;12.01;70.27;99645.13;1737341;82;20107;-55
2022/11/03 10:42:04;;;;;;;;;;;;;;;12.05;70.40;99644.02;1739903;82;20114;-49
2022/11/03 10:44:31;;;;;;;;;;;;;;;12.10;70.86;99635.86;1732831;82;20418;-52
2022/11/03 10:47:00;;;;;;;;;;;;;;;12.08;69.42;99625.40;1739224;81;20420;-52
2022/11/03 10:49:31;;;;;;;;;;;;;;;12.04;65.46;99621.69;1752516;80;20105;-53
2022/11/03 10:52:22;;;;;;;;;;;;;;;12.14;67.89;99617.61;1764029;80;20163;-55
2022/11/03 10:54:49;;;;;;;;;;;;;;;12.19;66.10;99618.69;1787312;80;20148;-55
2022/11/03 10:57:17;;;;;;;;;;;;;;;12.23;66.42;99613.13;1778542;80;20543;-54
2022/11/03 10:59:45;;;;;;;;;;;;;;;12.27;64.86;99608.53;1765555;80;20739;-54
2022/11/03 11:02:21;;;;;;;;;;;;;;;12.34;63.67;99605.08;1767347;80;20096;-54
2022/11/03 11:04:48;;;;;;;;;;;;;;;12.31;61.78;99606.09;1760171;80;20186;-49
2022/11/03 11:07:20;;;;;;;;;;;;;;;12.42;64.35;99596.24;1762671;80;20112;-52
2022/11/03 11:09:47;;;;;;;;;;;;;;;12.43;63.47;99592.69;1765898;80;20112;-49
2022/11/03 11:12:21;;;;;;;;;;;;;;;12.51;64.81;99582.52;1762801;80;20121;-50
2022/11/03 11:14:56;;;;;;;;;;;;;;;12.60;63.56;99575.86;1738571;81;20114;-52
2022/11/03 11:17:44;;;;;;;;;;;;;;;12.64;62.12;99582.64;1754759;81;20210;-51
2022/11/03 11:22:10;;;;;;;11.50;3.80;;;;;;;12.83;62.18;99574.50;1818518;79;22278;-52
2022/11/03 11:24:47;;;;;;;12.98;2.87;;;;;;;12.88;66.48;99573.75;1792040;80;21054;-51
2022/11/03 11:27:37;;;;;;;;;;;;;;;12.91;64.70;99574.02;1794715;80;20998;-53
2022/11/03 11:30:08;;;;;;;7.33;2.33;;;;;;;12.93;63.32;99565.06;1792462;80;20824;-56
2022/11/03 11:32:51;;;;;;;11.30;2.33;;;;;;;13.06;64.92;99573.95;1791654;80;21456;-43
2022/11/03 11:35:26;;;;;;;6.22;2.50;;;;;;;13.15;64.46;99563.30;1791260;80;21018;-48
2022/11/03 11:37:53;;;;;;;19.95;2.75;;;;;;;13.18;62.69;99555.66;1788640;80;21054;-50
2022/11/03 11:40:27;;;;;;;9.23;2.60;;;;;;;13.19;56.98;99556.05;1792715;80;21499;-45
2022/11/03 11:43:13;;;;;;;8.90;2.70;;;;;;;13.30;62.02;99564.59;1791665;80;21066;-51
2022/11/03 11:46:21;;;;;;;12.20;3.10;;;;;;;13.34;60.87;99557.75;1792769;80;20995;-57
2022/11/03 11:49:10;;;;;;;6.72;2.05;;;;;;;13.30;58.38;99548.30;1792275;80;21558;-49
2022/11/03 11:51:37;;;;;;;6.25;1.80;;;;;;;13.36;59.83;99547.93;1792380;80;21010;-57
2022/11/03 11:54:16;;;;;;;7.90;1.73;;;;;;;13.40;59.91;99542.82;1791983;80;21073;-52
2022/11/03 11:56:46;;;;;;;10.15;1.92;;;;;;;13.43;59.67;99545.28;1792131;80;21175;-52
2022/11/03 11:59:23;;;;;;;3.47;1.70;;;;;;;13.43;58.01;99544.44;1792181;80;20990;-51
2022/11/03 12:01:52;;;;;;;5.87;1.80;;;;;;;13.42;56.29;99537.45;1791887;80;21007;-54
2022/11/03 12:04:29;;;;;;;3.80;1.77;;;;;;;13.47;57.39;99534.53;1791938;80;20999;-56
2022/11/03 12:06:56;;;;;;;9.03;2.17;;;;;;;13.42;57.24;99530.39;1792569;80;21022;-50
2022/11/03 12:09:28;;;;;;;11.80;2.70;;;;;;;13.46;58.45;99523.58;1792818;80;20963;-44
2022/11/03 12:12:00;;;;;;;9.58;2.20;;;;;;;13.40;56.37;99525.65;1792293;80;21002;-41
2022/11/03 12:14:37;;;;;;;7.15;2.87;;;;;;;13.41;55.70;99526.04;1791635;80;21046;-53
2022/11/03 12:17:20;;;;;;;11.22;2.87;;;;;;;13.37;53.57;99524.55;1791456;80;21503;-46
2022/11/03 12:19:51;;;;;;;7.95;3.35;;;;;;;13.25;49.67;99522.64;1792023;80;20982;-52
2022/11/03 12:22:28;;;;;;;10.28;2.40;;;;;;;13.21;51.79;99522.46;1778681;80;21066;-53
2022/11/03 12:25:03;;;;;;;6.87;2.80;;;;;;;13.30;54.24;99521.88;1778969;81;20975;-45
2022/11/03 12:27:34;;;;;;;4.83;2.22;;;;;;;13.37;54.98;99521.03;1778430;81;21011;-51
2022/11/03 12:30:04;;;;;;;9.43;2.02;;;;;;;13.40;55.18;99516.41;1778621;81;20987;-43
2022/11/03 12:32:30;;;;;;;8.53;2.12;;;;;;;13.43;55.73;99509.62;1778010;81;21418;-49
2022/11/03 12:34:56;;;;;;;7.50;2.37;;;;;;;13.44;55.89;99505.17;1778057;81;21112;-46
2022/11/03 12:37:22;;;;;;;4.70;2.02;;;;;;;13.49;55.85;99503.58;1778188;80;21003;-56
2022/11/03 12:39:48;;;;;;;8.70;2.20;;;;;;;13.42;52.57;99500.02;1772104;80;21109;-47
2022/11/03 12:42:14;;;;;;;12.30;2.62;;;;;;;13.49;54.43;99500.45;1738723;82;20992;-46
2022/11/03 12:44:40;;;;;;;9.53;2.20;;;;;;;13.53;55.27;99501.10;1738575;82;21015;-46
2022/11/03 12:47:05;;;;;;;14.25;3.08;;;;;;;13.57;55.86;99499.95;1738990;82;20996;-47
2022/11/03 12:49:31;;;;;;;8.80;2.08;;;;;;;13.59;56.32;99500.24;1739037;82;20996;-54
2022/11/03 12:52:05;;;;;;;17.15;2.37;;;;;;;13.60;54.74;99496.64;1774266;81;20984;-50
2022/11/03 12:54:24;;;;;;;6.70;1.85;;;;;;;13.62;54.17;99500.50;1775623;80;21011;-49
2022/11/03 12:56:52;;;;;;;11.70;1.90;;;;;;;13.59;53.35;99489.67;1778219;81;21007;-53
2022/11/03 12:59:19;;;;;;;6.67;2.30;;;;;;;13.62;53.29;99483.33;1777795;80;21018;-46
2022/11/03 13:01:45;;;;;;;;;;;;;;;13.65;52.42;99485.78;1780598;81;21011;-39
2022/11/03 13:04:11;;;;;;;4.75;2.20;;;;;;;13.64;48.50;99480.11;1778148;81;20144;-48
2022/11/03 13:06:37;;;;;;;6.55;2.45;;;;;;;14.29;53.57;99483.30;1777773;81;20984;-48
2022/11/03 13:09:03;;;;;;;12.80;2.17;;;;;;;14.73;47.11;99480.75;1777974;81;20984;-45
2022/11/03 13:14:13;;;;;;;3.72;1.90;;;;;;;15.40;47.44;99472.95;1777501;81;21112;-55
2022/11/03 13:16:38;;;;;;;4.95;2.10;;;;;;;15.65;49.88;99472.51;1778101;80;21497;-50
2022/11/03 13:19:04;;;;;;;3.05;2.05;;;;;;;15.98;50.13;99470.51;1777097;80;21042;-48
2022/11/03 13:21:32;;;;;;;10.30;2.72;;;;;;;16.39;49.17;99469.19;1778169;80;21588;-51
2022/11/03 13:24:00;;;;;;;11.83;3.22;;;;;;;16.70;49.01;99466.82;1778486;81;20999;-50
2022/11/03 13:26:25;;;;;;;9.55;3.17;;;;;;;17.13;48.09;99463.94;1777807;81;22147;-47
2022/11/03 13:28:51;;;;;;;10.43;3.17;;;;;;;17.63;46.76;99458.52;1777538;80;21011;-45
2022/11/03 13:31:17;;;;;;;5.65;2.70;;;;;;;18.20;46.34;99464.95;1778075;81;20972;-51
2022/11/03 13:33:43;;;;;;;13.03;3.80;;;;;;;18.44;45.51;99458.52;1778093;81;20992;-52
2022/11/03 13:36:08;;;;;;;7.37;2.77;;;;;;;18.44;45.37;99452.70;1778262;81;21473;-44
2022/11/03 13:38:34;;;;;;;12.03;3.72;;;;;;;18.98;44.12;99450.75;1766654;81;21476;-45
2022/11/03 13:41:00;;;;;;;12.33;3.80;;;;;;;19.67;43.06;99442.42;1752837;82;21042;-41
2022/11/03 13:43:27;;;;;;;7.92;3.40;;;;;;;20.16;42.03;99441.94;1756259;81;21184;-56